Time;durP1;ratioP1;P1;durP2;ratioP2;P2;SDS_P1;SDS_P2;PMS_P1;PMS_P2;Temp;Humidity;BMP_temperature;BMP_pressure;BME280_temperature;BME280_humidity;BME280_pressure;Samples;Min_cycle;Max_cycle;Signal;HPM_P1;HPM_P2
2022/01/22 00:00:21;;;;;;;11.50;5.28;;;;;;;-2.43;92.75;100162.19;5029538;28;20034;-80
2022/01/22 00:02:47;;;;;;;8.43;4.60;;;;;;;-2.43;92.82;100170.25;5008672;28;20026;-80
2022/01/22 00:05:14;;;;;;;5.97;3.65;;;;;;;-2.40;93.05;100156.41;5055102;28;20045;-80
2022/01/22 00:07:39;;;;;;;10.35;5.60;;;;;;;-2.37;92.56;100165.91;5030839;28;20038;-80
2022/01/22 00:10:11;;;;;;;9.18;3.95;;;;;;;-2.35;92.92;100170.06;5030738;28;20064;-80
2022/01/22 00:15:08;;;;;;;9.20;6.00;;;;;;;-2.35;92.42;100178.09;5031349;28;20475;-80
2022/01/22 00:17:33;;;;;;;8.02;4.22;;;;;;;-2.35;92.42;100169.22;5022930;28;20496;-80
2022/01/22 00:19:59;;;;;;;8.35;5.07;;;;;;;-2.35;92.93;100172.72;5029400;28;20049;-80
2022/01/22 00:22:29;;;;;;;8.18;4.75;;;;;;;-2.35;92.50;100170.06;5031008;28;20132;-80
2022/01/22 00:24:58;;;;;;;10.38;5.45;;;;;;;-2.36;92.43;100178.31;5030879;28;20042;-80
2022/01/22 00:27:24;;;;;;;8.43;4.65;;;;;;;-2.38;92.31;100172.34;5013175;28;20132;-79
2022/01/22 00:29:50;;;;;;;8.93;4.50;;;;;;;-2.38;92.55;100175.03;5030045;28;20120;-80
2022/01/22 00:32:15;;;;;;;9.57;3.33;;;;;;;-2.37;92.71;100180.19;5029735;28;20124;-79
2022/01/22 00:34:41;;;;;;;6.45;3.53;;;;;;;-2.34;92.33;100174.38;5030552;28;20046;-79
2022/01/22 00:37:07;;;;;;;9.15;4.60;;;;;;;-2.32;92.63;100174.19;5030584;28;20212;-79
2022/01/22 00:39:34;;;;;;;6.28;4.28;;;;;;;-2.34;92.60;100174.38;5030907;28;20037;-79
2022/01/22 00:42:00;;;;;;;9.50;5.10;;;;;;;-2.32;93.09;100191.13;5030209;28;20042;-79
2022/01/22 00:44:27;;;;;;;7.20;3.92;;;;;;;-2.33;92.85;100177.91;5031134;28;20099;-79
2022/01/22 00:46:52;;;;;;;9.20;4.90;;;;;;;-2.34;92.74;100190.50;5029669;28;20037;-79
2022/01/22 00:49:19;;;;;;;4.45;2.53;;;;;;;-2.31;93.09;100195.47;5045350;28;20040;-79
2022/01/22 00:51:45;;;;;;;8.20;4.93;;;;;;;-2.29;92.89;100196.06;5030825;28;20124;-79
2022/01/22 00:54:11;;;;;;;8.45;4.40;;;;;;;-2.32;92.96;100199.19;5046226;28;20124;-79
2022/01/22 00:56:36;;;;;;;7.45;4.07;;;;;;;-2.32;93.15;100198.34;5029815;28;20041;-79
2022/01/22 00:59:02;;;;;;;6.40;4.30;;;;;;;-2.32;93.13;100201.88;5030885;28;20614;-79
2022/01/22 01:01:28;;;;;;;5.13;3.83;;;;;;;-2.32;92.92;100199.19;5062844;28;20041;-79
2022/01/22 01:04:00;;;;;;;6.53;3.78;;;;;;;-2.30;92.55;100207.88;5012984;28;20528;-79
2022/01/22 01:06:26;;;;;;;7.38;3.25;;;;;;;-2.29;92.48;100212.19;5013743;28;20041;-81
2022/01/22 01:08:51;;;;;;;7.38;4.28;;;;;;;-2.30;91.83;100215.09;5030799;28;20464;-81
2022/01/22 01:11:17;;;;;;;6.93;3.85;;;;;;;-2.30;92.17;100236.59;5010626;28;20092;-80
2022/01/22 01:13:47;;;;;;;6.60;3.22;;;;;;;-2.30;91.24;100213.22;5012034;28;20038;-80
2022/01/22 01:16:32;;;;;;;5.55;3.50;;;;;;;-2.26;90.89;100202.88;5030158;28;20041;-80
2022/01/22 01:35:18;;;;;;;5.18;2.92;;;;;;;-2.17;88.27;100258.91;5035873;28;20073;-79
2022/01/22 01:37:43;;;;;;;6.80;3.80;;;;;;;-2.17;87.77;100260.78;5035158;28;20068;-79
2022/01/22 01:40:11;;;;;;;5.50;3.35;;;;;;;-2.17;88.45;100266.97;5015079;28;20045;-78
2022/01/22 01:45:23;;;;;;;6.97;4.00;;;;;;;-2.14;88.09;100276.50;5045413;28;20422;-79
2022/01/22 01:47:55;;;;;;;5.50;3.60;;;;;;;-2.12;87.79;100269.88;5029512;28;20036;-79
2022/01/22 01:50:21;;;;;;;4.65;2.28;;;;;;;-2.13;87.76;100278.16;5000307;28;20046;-79
2022/01/22 01:52:53;;;;;;;4.97;3.28;;;;;;;-2.11;87.60;100273.38;4990900;28;20100;-80
2022/01/22 01:55:34;;;;;;;5.13;3.13;;;;;;;-2.10;87.77;100268.84;5007745;28;20038;-80
2022/01/22 01:58:04;;;;;;;5.70;3.00;;;;;;;-2.13;87.72;100270.91;5044666;28;20041;-80
2022/01/22 02:00:34;;;;;;;6.15;3.20;;;;;;;-2.12;87.94;100269.03;5013363;28;20041;-80
2022/01/22 02:03:00;;;;;;;5.97;3.60;;;;;;;-2.13;87.51;100267.38;5045114;28;20129;-79
2022/01/22 02:05:33;;;;;;;5.57;2.97;;;;;;;-2.13;88.05;100272.75;5022513;28;20136;-79
2022/01/22 02:08:00;;;;;;;4.27;3.10;;;;;;;-2.15;88.23;100264.09;5006126;28;20046;-78
2022/01/22 02:10:37;;;;;;;6.35;2.55;;;;;;;-2.17;88.13;100266.97;5011242;28;20054;-80
2022/01/22 02:24:16;;;;;;;4.53;3.20;;;;;;;-2.06;87.93;100308.56;5064881;28;20044;-79
2022/01/22 02:26:49;;;;;;;;;;;;;;;-2.09;88.33;100295.50;5034108;28;20037;-79
2022/01/22 02:29:19;;;;;;;4.82;3.05;;;;;;;-2.12;88.21;100296.75;5047657;28;19932;-79
2022/01/22 02:34:59;;;;;;;6.38;3.15;;;;;;;-2.14;88.35;100296.13;5031822;28;20060;-80
2022/01/22 02:37:31;;;;;;;5.97;3.30;;;;;;;-2.14;89.07;100288.06;5060320;28;20580;-79
2022/01/22 02:40:10;;;;;;;6.47;3.25;;;;;;;-2.13;88.68;100303.16;5000447;28;20042;-79
2022/01/22 02:42:36;;;;;;;4.55;3.10;;;;;;;-2.13;88.46;100321.97;5032142;28;20029;-80
2022/01/22 02:45:07;;;;;;;5.22;3.17;;;;;;;-2.10;88.64;100314.53;5016249;28;20056;-80
2022/01/22 02:47:34;;;;;;;4.32;2.90;;;;;;;-2.09;88.89;100326.94;5032483;28;20034;-80
2022/01/22 02:49:59;;;;;;;10.63;1.67;;;;;;;-2.08;89.22;100323.22;5033490;28;20048;-80
2022/01/22 02:52:25;;;;;;;4.75;3.10;;;;;;;-2.08;89.29;100317.84;5024426;28;20037;-80
2022/01/22 02:54:51;;;;;;;6.05;2.72;;;;;;;-2.08;89.61;100328.59;5012932;28;20096;-79
2022/01/22 02:57:17;;;;;;;4.57;2.97;;;;;;;-2.08;90.02;100329.44;5046823;28;20503;-80
2022/01/22 02:59:48;;;;;;;3.70;2.42;;;;;;;-2.07;90.13;100343.72;5015078;28;20048;-80
2022/01/22 03:02:14;;;;;;;4.28;2.60;;;;;;;-2.06;90.30;100346.19;5029548;28;20072;-80
2022/01/22 03:04:42;;;;;;;4.32;2.95;;;;;;;-2.07;90.20;100341.84;5028976;28;20037;-79
2022/01/22 03:07:08;;;;;;;3.83;2.20;;;;;;;-2.07;90.16;100354.47;5014210;28;20504;-79
2022/01/22 03:09:42;;;;;;;3.67;2.50;;;;;;;-2.09;90.59;100354.66;5031514;28;20103;-81
2022/01/22 03:12:29;;;;;;;5.40;2.67;;;;;;;-2.13;90.78;100348.84;5032222;28;20443;-81
2022/01/22 03:15:34;;;;;;;3.45;2.45;;;;;;;-2.15;90.44;100353.63;5020673;28;20079;-79
2022/01/22 03:28:24;;;;;;;3.92;2.47;;;;;;;-2.20;91.23;100358.78;5031589;28;20044;-77
2022/01/22 03:30:50;;;;;;;6.03;2.67;;;;;;;-2.18;91.27;100369.31;5031031;28;20049;-78
2022/01/22 03:33:19;;;;;;;4.97;1.98;;;;;;;-2.20;91.05;100369.53;5030788;28;20041;-78
2022/01/22 03:35:50;;;;;;;4.07;2.53;;;;;;;-2.23;90.76;100369.94;5016112;28;20520;-79
2022/01/22 03:38:17;;;;;;;4.47;2.45;;;;;;;-2.23;90.93;100375.31;5065144;28;20127;-78
2022/01/22 03:40:48;;;;;;;3.08;1.88;;;;;;;-2.25;90.98;100374.72;5031902;28;20720;-78
2022/01/22 03:43:15;;;;;;;5.15;2.47;;;;;;;-2.24;90.92;100378.22;5063659;28;20045;-78
2022/01/22 03:45:41;;;;;;;5.53;2.42;;;;;;;-2.28;91.04;100383.16;5030804;28;20175;-78
2022/01/22 03:48:06;;;;;;;3.75;2.53;;;;;;;-2.29;90.82;100381.50;5015148;28;20130;-78
2022/01/22 03:50:32;;;;;;;3.35;2.30;;;;;;;-2.28;90.58;100388.53;5031496;28;20075;-79
2022/01/22 03:52:58;;;;;;;4.00;2.47;;;;;;;-2.28;90.36;100390.38;5031347;28;20042;-78
2022/01/22 03:55:49;;;;;;;2.10;1.50;;;;;;;-2.28;90.39;100411.88;5031239;28;20030;-78
2022/01/22 03:58:27;;;;;;;3.13;2.00;;;;;;;-2.31;91.07;100418.50;5031902;28;20048;-78
2022/01/22 04:04:05;;;;;;;3.85;2.00;;;;;;;-2.35;90.83;100424.50;5030130;28;20764;-79
2022/01/22 04:08:59;;;;;;;3.67;2.50;;;;;;;-2.37;90.85;100432.75;5064351;28;20037;-79
2022/01/22 04:11:25;;;;;;;3.75;2.10;;;;;;;-2.37;91.61;100448.06;5064488;28;20068;-79
2022/01/22 04:13:53;;;;;;;2.60;1.90;;;;;;;-2.38;91.49;100447.22;5013823;28;20107;-79
2022/01/22 04:16:20;;;;;;;2.90;1.50;;;;;;;-2.36;91.22;100445.16;5031246;28;20041;-80
2022/01/22 04:27:10;;;;;;;5.07;2.80;;;;;;;-2.35;91.21;100459.41;5012408;28;20555;-79
2022/01/22 04:29:35;;;;;;;3.58;2.00;;;;;;;-2.36;90.58;100466.66;5012179;28;20041;-80
2022/01/22 04:32:01;;;;;;;3.45;2.17;;;;;;;-2.38;90.84;100471.41;5012106;28;20038;-80
2022/01/22 04:34:26;;;;;;;1.73;1.60;;;;;;;-2.38;90.77;100463.34;5023171;28;20084;-79
2022/01/22 04:36:52;;;;;;;2.40;1.80;;;;;;;-2.39;91.05;100472.44;5033710;28;20034;-79
2022/01/22 04:39:22;;;;;;;2.67;1.50;;;;;;;-2.40;90.90;100468.09;5032024;28;20103;-79
2022/01/22 04:41:49;;;;;;;4.10;2.30;;;;;;;-2.38;90.50;100475.94;5014252;28;20046;-79
2022/01/22 04:44:15;;;;;;;3.65;1.58;;;;;;;-2.38;90.83;100478.63;4998285;28;20049;-79
2022/01/22 04:49:14;;;;;;;3.40;2.30;;;;;;;-2.39;90.49;100475.13;5030317;28;20033;-79
2022/01/22 04:57:11;;;;;;;2.85;2.33;;;;;;;-2.45;89.96;100478.59;5063537;28;20136;-79
2022/01/22 04:59:36;;;;;;;1.83;1.33;;;;;;;-2.44;89.77;100499.06;5013779;28;20048;-79
2022/01/22 05:02:02;;;;;;;2.30;1.80;;;;;;;-2.46;89.72;100498.44;5024531;28;20037;-79
2022/01/22 05:04:54;;;;;;;3.55;1.80;;;;;;;-2.46;89.69;100504.63;5009697;28;20050;-79
2022/01/22 05:07:49;;;;;;;5.82;2.40;;;;;;;-2.49;90.42;100494.28;5011810;28;20049;-79
2022/01/22 05:10:32;;;;;;;2.55;1.63;;;;;;;-2.51;90.60;100490.97;5020246;28;20390;-79
2022/01/22 05:12:58;;;;;;;5.20;2.28;;;;;;;-2.51;90.06;100499.03;5030051;28;20034;-79
2022/01/22 05:15:24;;;;;;;4.05;2.70;;;;;;;-2.52;90.55;100492.00;5030075;28;20037;-79
2022/01/22 05:17:49;;;;;;;4.35;2.40;;;;;;;-2.51;90.58;100492.84;5031067;28;20041;-79
2022/01/22 05:20:26;;;;;;;3.35;2.10;;;;;;;-2.53;91.15;100492.22;5013243;28;20041;-81
2022/01/22 05:25:27;;;;;;;5.55;2.80;;;;;;;-2.53;91.03;100505.63;5063378;28;20045;-78
2022/01/22 05:31:00;;;;;;;3.33;1.85;;;;;;;-2.61;90.40;100509.31;5043710;28;20116;-78
2022/01/22 05:36:58;;;;;;;4.32;1.98;;;;;;;-2.67;89.28;100507.41;5040934;28;20049;-79
2022/01/22 05:39:25;;;;;;;2.33;1.63;;;;;;;-2.68;89.26;100504.94;5015184;28;20065;-79
2022/01/22 05:41:51;;;;;;;0.98;0.73;;;;;;;-2.65;89.61;100501.84;5025714;28;20089;-79
2022/01/22 05:44:18;;;;;;;2.95;1.75;;;;;;;-2.65;89.27;100515.28;5024290;28;20041;-79
2022/01/22 05:46:43;;;;;;;3.08;2.00;;;;;;;-2.64;89.79;100520.44;5031006;28;20373;-78
2022/01/22 05:49:09;;;;;;;2.22;1.45;;;;;;;-2.64;89.17;100520.44;5030836;28;20046;-79
2022/01/22 05:51:38;;;;;;;4.25;2.10;;;;;;;-2.63;89.81;100524.78;5030629;28;20527;-78
2022/01/22 05:59:39;;;;;;;2.95;1.80;;;;;;;-2.64;89.42;100543.78;5066063;28;20492;-79
2022/01/22 06:02:10;;;;;;;2.83;1.63;;;;;;;-2.64;89.51;100533.88;5013051;28;20114;-81
2022/01/22 06:04:36;;;;;;;2.13;1.58;;;;;;;-2.65;89.76;100536.75;5023053;28;20041;-77
2022/01/22 06:07:06;;;;;;;3.78;2.50;;;;;;;-2.67;89.63;100536.97;5025711;28;20042;-77
2022/01/22 06:09:33;;;;;;;3.47;1.88;;;;;;;-2.68;89.74;100534.47;5031173;28;20091;-80
2022/01/22 06:14:49;;;;;;;3.28;1.73;;;;;;;-2.78;90.27;100540.19;5034097;28;20060;-80
2022/01/22 06:17:15;;;;;;;4.55;2.40;;;;;;;-2.81;90.05;100556.69;5065330;28;20045;-82
2022/01/22 06:19:50;;;;;;;2.75;1.83;;;;;;;-2.82;90.22;100557.72;5017865;28;20055;-82
2022/01/22 06:22:16;;;;;;;2.75;1.52;;;;;;;-2.81;90.01;100560.22;5034256;28;20041;-81
2022/01/22 06:24:42;;;;;;;4.00;2.00;;;;;;;-2.80;89.88;100567.22;5064909;28;20043;-80
2022/01/22 06:27:09;;;;;;;3.85;2.15;;;;;;;-2.79;90.25;100563.53;5034064;28;20045;-82
2022/01/22 06:29:35;;;;;;;2.63;2.03;;;;;;;-2.81;90.03;100580.84;5017187;28;20041;-81
2022/01/22 06:32:01;;;;;;;3.60;1.95;;;;;;;-2.81;89.85;100588.91;5029216;28;20041;-80
2022/01/22 06:34:31;;;;;;;3.95;2.20;;;;;;;-2.84;89.48;100592.81;5033095;28;20068;-86
2022/01/22 06:36:57;;;;;;;3.10;1.85;;;;;;;-2.86;89.64;100586.81;5065919;28;20045;-79
2022/01/22 06:39:24;;;;;;;2.33;1.95;;;;;;;-2.84;89.92;100587.47;5032071;28;20045;-80
2022/01/22 06:42:02;;;;;;;3.80;2.35;;;;;;;-2.84;90.19;100611.63;5062574;28;20087;-79
2022/01/22 06:44:41;;;;;;;2.95;1.90;;;;;;;-2.84;90.45;100600.06;5031055;28;20541;-78
2022/01/22 06:47:45;;;;;;;5.03;2.13;;;;;;;-2.88;90.23;100607.66;5029673;28;20526;-84
2022/01/22 06:50:14;;;;;;;;;;;;;;;-2.89;90.34;100611.38;5027169;28;20045;-78
2022/01/22 06:53:01;;;;;;;3.03;1.90;;;;;;;-2.87;89.65;100622.75;5042950;28;20166;-79
2022/01/22 06:55:56;;;;;;;3.83;1.80;;;;;;;-2.88;89.58;100622.94;5025040;28;20033;-79
2022/01/22 06:58:24;;;;;;;2.72;1.88;;;;;;;-2.90;89.99;100628.50;5016378;28;20050;-81
2022/01/22 07:00:57;;;;;;;3.72;2.10;;;;;;;-2.93;90.18;100618.16;5010131;28;20041;-80
2022/01/22 07:03:28;;;;;;;2.50;1.83;;;;;;;-2.94;89.99;100613.81;5058848;28;20072;-80
2022/01/22 07:06:05;;;;;;;2.55;1.77;;;;;;;-2.94;90.09;100613.81;4998801;28;20072;-79
2022/01/22 07:08:33;;;;;;;3.85;1.98;;;;;;;-2.94;90.42;100619.19;5040400;28;20048;-81
2022/01/22 07:11:00;;;;;;;4.55;2.10;;;;;;;-2.97;90.11;100613.34;5037450;28;20046;-82
2022/01/22 07:13:27;;;;;;;2.88;2.13;;;;;;;-2.95;90.19;100619.38;5006563;28;20562;-79
2022/01/22 07:15:55;;;;;;;3.72;2.90;;;;;;;-2.93;90.36;100628.06;4996327;28;20038;-80
2022/01/22 07:18:21;;;;;;;3.85;2.55;;;;;;;-2.98;90.24;100628.63;5031960;28;20064;-82
2022/01/22 07:20:49;;;;;;;5.93;2.10;;;;;;;-2.98;90.12;100630.50;5032072;28;20124;-89
2022/01/22 07:25:43;;;;;;;5.50;3.50;;;;;;;-2.91;90.05;100642.97;5044755;28;20037;-79
2022/01/22 07:28:32;;;;;;;4.90;2.58;;;;;;;-2.90;90.12;100633.88;5035492;28;20555;-87
2022/01/22 07:31:00;;;;;;;2.42;1.77;;;;;;;-2.91;90.55;100629.53;5031904;28;20141;-90
2022/01/22 07:33:27;;;;;;;5.70;2.42;;;;;;;-2.89;90.52;100642.78;5031584;28;20480;-86
2022/01/22 07:35:53;;;;;;;1.35;1.23;;;;;;;-2.89;89.33;100642.78;5031347;28;20037;-88
2022/01/22 07:38:20;;;;;;;3.30;1.95;;;;;;;-2.91;89.87;100634.91;5032529;28;20065;-86
2022/01/22 07:40:45;;;;;;;3.15;1.77;;;;;;;-2.92;90.13;100640.47;5064891;28;20522;-86
2022/01/22 07:43:28;;;;;;;8.10;4.18;;;;;;;-2.92;90.36;100641.31;5032312;28;20121;-87
2022/01/22 07:46:03;;;;;;;3.95;2.17;;;;;;;-2.92;90.06;100644.00;5026918;28;20493;-89
2022/01/22 07:48:31;;;;;;;1.75;1.15;;;;;;;-2.90;90.30;100644.63;5030514;28;20059;-89
2022/01/22 07:51:09;;;;;;;9.95;5.60;;;;;;;-2.92;89.94;100645.84;5053230;28;20048;-87
2022/01/22 07:53:35;;;;;;;3.03;1.38;;;;;;;-2.93;90.24;100647.69;5030527;28;20045;-90
2022/01/22 07:56:06;;;;;;;4.03;2.25;;;;;;;-2.94;89.88;100651.41;5027774;28;20042;-87
2022/01/22 07:58:31;;;;;;;5.38;3.72;;;;;;;-2.94;90.61;100661.31;5011526;28;20038;-87
2022/01/22 08:00:57;;;;;;;6.32;3.42;;;;;;;-2.95;89.71;100651.56;5015960;28;20077;-87
2022/01/22 08:03:26;;;;;;;5.78;2.03;;;;;;;-2.96;90.42;100653.44;5031285;28;20145;-87
2022/01/22 08:06:12;;;;;;;5.68;2.17;;;;;;;-2.94;90.37;100658.63;5027278;28;20080;-87
2022/01/22 08:08:56;;;;;;;2.00;1.08;;;;;;;-2.97;90.69;100662.50;5032006;28;20033;-87
2022/01/22 08:11:40;;;;;;;3.05;1.65;;;;;;;-2.96;90.13;100664.16;5032345;28;20053;-88
2022/01/22 08:14:09;;;;;;;3.70;2.30;;;;;;;-2.96;90.55;100672.22;5031435;28;20203;-88
2022/01/22 08:16:35;;;;;;;2.83;1.50;;;;;;;-2.95;90.90;100671.22;5032135;28;20082;-89
2022/01/22 08:19:01;;;;;;;1.42;0.93;;;;;;;-2.97;90.60;100678.63;5031707;28;20046;-89
2022/01/22 08:21:26;;;;;;;2.25;1.40;;;;;;;-2.96;90.59;100682.13;5036334;28;20048;-89
2022/01/22 08:24:12;;;;;;;3.00;1.77;;;;;;;-2.99;91.12;100688.72;5035803;28;20041;-88
2022/01/22 08:26:52;;;;;;;2.53;1.73;;;;;;;-2.99;90.97;100688.72;5038581;28;20040;-88
2022/01/22 08:29:22;;;;;;;5.55;2.22;;;;;;;-2.99;91.09;100688.72;5059147;28;20037;-90
2022/01/22 08:32:03;;;;;;;3.30;1.52;;;;;;;-2.98;91.33;100687.69;5039950;28;20036;-89
2022/01/22 08:37:14;;;;;;;2.70;1.10;;;;;;;-2.96;91.70;100679.44;5036680;28;20424;-88
2022/01/22 08:39:40;;;;;;;2.92;1.67;;;;;;;-2.93;91.76;100687.97;5019495;28;20140;-88
2022/01/22 08:42:06;;;;;;;1.90;1.50;;;;;;;-2.91;91.79;100688.59;5035214;28;20042;-88
2022/01/22 08:44:32;;;;;;;1.95;1.42;;;;;;;-2.92;92.01;100686.13;5035566;28;20399;-89
2022/01/22 08:47:00;;;;;;;4.40;1.92;;;;;;;-2.95;91.81;100703.44;5030999;28;20037;-89
2022/01/22 08:49:26;;;;;;;2.47;1.50;;;;;;;-2.97;92.21;100700.09;5031262;28;20411;-89
2022/01/22 08:52:01;;;;;;;2.88;1.67;;;;;;;-2.99;92.15;100696.78;5014992;28;20419;-88
2022/01/22 08:54:26;;;;;;;3.10;2.03;;;;;;;-2.98;92.29;100694.91;4998276;28;20049;-88
2022/01/22 08:56:53;;;;;;;3.35;1.83;;;;;;;-2.95;92.19;100707.94;5016028;28;20095;-87
2022/01/22 08:59:19;;;;;;;2.45;1.17;;;;;;;-2.92;92.41;100713.78;4999655;28;20041;-88
2022/01/22 09:01:48;;;;;;;5.20;2.15;;;;;;;-2.90;92.33;100711.75;5030688;28;20047;-88
2022/01/22 09:04:34;;;;;;;3.72;1.95;;;;;;;-2.86;92.81;100714.88;5031052;28;20045;-88
2022/01/22 09:07:18;;;;;;;3.67;1.80;;;;;;;-2.84;92.52;100713.66;5016147;28;20037;-88
2022/01/22 09:10:03;;;;;;;3.42;1.60;;;;;;;-2.80;92.13;100706.03;5029171;28;20435;-88
2022/01/22 09:12:47;;;;;;;4.28;1.98;;;;;;;-2.79;92.53;100705.00;5031567;28;20047;-88
2022/01/22 09:15:24;;;;;;;4.80;2.53;;;;;;;-2.74;92.65;100721.41;5015062;28;20041;-88
2022/01/22 09:17:52;;;;;;;3.03;1.75;;;;;;;-2.74;92.21;100718.72;5030066;28;20075;-87
2022/01/22 09:20:42;;;;;;;3.78;2.08;;;;;;;-2.74;92.36;100722.22;4997146;28;20494;-89
2022/01/22 09:23:07;;;;;;;4.50;2.55;;;;;;;-2.74;92.50;100732.97;5016178;28;20091;-89
2022/01/22 09:25:33;;;;;;;4.57;2.00;;;;;;;-2.72;92.44;100748.06;5030570;28;20037;-89
2022/01/22 09:27:59;;;;;;;3.38;1.90;;;;;;;-2.74;92.27;100740.19;5012937;28;20042;-89
2022/01/22 09:30:25;;;;;;;3.17;1.90;;;;;;;-2.74;92.44;100737.50;4996652;28;20136;-89
2022/01/22 09:32:51;;;;;;;3.88;1.45;;;;;;;-2.69;92.34;100743.13;5030748;28;20037;-89
2022/01/22 09:35:38;;;;;;;3.78;1.95;;;;;;;-2.68;92.42;100744.78;5044908;28;20495;-88
2022/01/22 09:38:27;;;;;;;4.80;2.65;;;;;;;-2.65;92.70;100751.63;5030261;28;20052;-88
2022/01/22 09:41:13;;;;;;;5.85;2.65;;;;;;;-2.64;92.85;100769.41;5029958;28;20038;-87
2022/01/22 09:43:53;;;;;;;6.28;2.90;;;;;;;-2.63;92.33;100771.06;5029641;28;20037;-87
2022/01/22 09:46:56;;;;;;;4.90;2.30;;;;;;;-2.65;92.97;100765.06;5028377;28;20037;-87
2022/01/22 09:49:37;;;;;;;3.22;2.10;;;;;;;-2.65;92.91;100765.06;5027939;28;20037;-88
2022/01/22 09:52:09;;;;;;;7.78;2.33;;;;;;;-2.64;92.93;100770.25;5009342;28;20132;-87
2022/01/22 09:54:55;;;;;;;3.70;2.17;;;;;;;-2.59;93.08;100772.38;5042872;28;20121;-88
2022/01/22 09:57:33;;;;;;;3.75;1.77;;;;;;;-2.58;93.05;100771.34;5042911;28;20092;-88
2022/01/22 10:00:22;;;;;;;5.10;2.40;;;;;;;-2.57;92.62;100778.38;5017067;28;20099;-89
2022/01/22 10:02:53;;;;;;;3.78;1.15;;;;;;;-2.53;93.14;100774.28;5013046;28;20034;-88
2022/01/22 10:05:39;;;;;;;4.88;2.47;;;;;;;-2.51;93.00;100789.19;5029488;28;20041;-88
2022/01/22 10:08:32;;;;;;;5.28;2.45;;;;;;;-2.52;92.89;100794.75;5029327;28;20059;-88
2022/01/22 10:11:25;;;;;;;4.07;2.17;;;;;;;-2.52;92.91;100792.06;5016577;28;20073;-89
2022/01/22 10:14:10;;;;;;;4.53;2.35;;;;;;;-2.49;93.45;100805.09;5015580;28;20411;-88
2022/01/22 10:16:37;;;;;;;6.47;3.03;;;;;;;-2.49;93.18;100799.72;5013324;28;20033;-89
2022/01/22 10:19:13;;;;;;;6.03;3.10;;;;;;;-2.49;93.25;100805.09;5029839;28;20447;-89
2022/01/22 10:21:42;;;;;;;4.18;2.17;;;;;;;-2.49;93.46;100797.88;5030671;28;20046;-88
2022/01/22 10:24:42;;;;;;;5.38;2.08;;;;;;;-2.48;92.68;100796.03;5029941;28;20034;-88
2022/01/22 10:29:55;;;;;;;5.35;2.45;;;;;;;-2.49;93.13;100794.34;5009687;28;20087;-88
2022/01/22 10:32:26;;;;;;;4.60;2.75;;;;;;;-2.47;93.60;100797.69;5025776;28;20041;-88
2022/01/22 10:35:15;;;;;;;5.10;2.50;;;;;;;-2.45;93.61;100801.00;5030181;28;20077;-91
2022/01/22 10:38:07;;;;;;;5.05;2.72;;;;;;;-2.45;93.33;100822.50;5028766;28;20045;-90
2022/01/22 10:40:38;;;;;;;4.93;2.50;;;;;;;-2.45;93.51;100809.06;5031930;28;20048;-89
2022/01/22 10:43:12;;;;;;;4.40;1.98;;;;;;;-2.44;93.71;100814.25;5016155;28;20045;-89
2022/01/22 10:45:41;;;;;;;3.72;2.55;;;;;;;-2.50;93.27;100815.03;5033986;28;20056;-88
2022/01/22 10:48:16;;;;;;;;;;;;;;;-2.50;93.92;100811.50;5034313;28;20041;-87
2022/01/22 10:50:42;;;;;;;5.60;2.78;;;;;;;-2.50;93.42;100808.81;5065426;28;20751;-89
2022/01/22 10:53:07;;;;;;;4.78;2.17;;;;;;;-2.47;93.47;100803.06;5032529;28;20473;-88
2022/01/22 10:55:33;;;;;;;3.95;2.03;;;;;;;-2.44;93.83;100811.56;5033754;28;20381;-88
2022/01/22 10:58:09;;;;;;;3.00;2.03;;;;;;;-2.47;93.46;100814.63;5033503;28;20076;-88
2022/01/22 11:00:35;;;;;;;3.58;2.00;;;;;;;-2.48;93.82;100812.13;5033653;28;20567;-88
2022/01/22 11:03:20;;;;;;;2.42;1.67;;;;;;;-2.49;93.33;100821.22;5032277;28;20080;-88
2022/01/22 11:05:46;;;;;;;2.80;2.10;;;;;;;-2.50;94.00;100830.31;5033619;28;20400;-87
2022/01/22 11:08:13;;;;;;;3.25;2.03;;;;;;;-2.50;94.27;100823.09;5013286;28;20046;-88
2022/01/22 11:10:40;;;;;;;2.95;1.83;;;;;;;-2.49;94.01;100821.22;5033370;28;20037;-86
2022/01/22 11:13:06;;;;;;;4.38;2.25;;;;;;;-2.45;94.38;100820.66;5033620;28;20087;-88
2022/01/22 11:15:33;;;;;;;4.68;2.40;;;;;;;-2.43;94.16;100828.50;5033318;28;20045;-88
2022/01/22 11:17:59;;;;;;;5.47;2.42;;;;;;;-2.39;94.51;100832.50;5032227;28;20515;-88
2022/01/22 11:20:25;;;;;;;3.22;1.95;;;;;;;-2.36;94.06;100832.13;5033014;28;20050;-88
2022/01/22 11:22:52;;;;;;;1.92;1.13;;;;;;;-2.37;94.12;100837.69;5034380;28;20144;-88
2022/01/22 11:25:19;;;;;;;3.40;1.60;;;;;;;-2.35;94.46;100828.41;5070315;28;20045;-88
2022/01/22 11:27:47;;;;;;;5.07;2.63;;;;;;;-2.35;93.74;100836.47;5019792;28;20041;-88
2022/01/22 11:30:16;;;;;;;1.65;1.15;;;;;;;-2.36;93.91;100837.50;5026243;28;20041;-88
2022/01/22 11:32:46;;;;;;;4.78;2.17;;;;;;;-2.35;94.00;100836.47;5028723;28;20091;-87
2022/01/22 11:35:12;;;;;;;4.50;2.47;;;;;;;-2.34;93.87;100839.97;5012079;28;20034;-87
2022/01/22 11:37:51;;;;;;;4.47;2.30;;;;;;;-2.34;93.84;100843.50;5045651;28;20137;-87
2022/01/22 11:40:18;;;;;;;2.47;1.75;;;;;;;-2.32;94.00;100848.69;5016021;28;20038;-88
2022/01/22 11:43:00;;;;;;;5.32;2.75;;;;;;;-2.33;93.61;100845.16;5031594;28;20037;-87
2022/01/22 11:45:33;;;;;;;4.75;2.15;;;;;;;-2.30;93.29;100854.69;5028233;28;20034;-88
2022/01/22 11:48:13;;;;;;;3.75;1.98;;;;;;;-2.30;93.61;100854.69;5032442;28;20049;-86
2022/01/22 11:50:41;;;;;;;4.70;2.22;;;;;;;-2.32;93.45;100854.06;5031193;28;20087;-88
2022/01/22 11:53:29;;;;;;;2.78;1.38;;;;;;;-2.33;93.21;100863.97;5032328;28;20056;-88
2022/01/22 11:56:10;;;;;;;2.78;2.05;;;;;;;-2.37;93.01;100878.00;5064773;28;20041;-87
2022/01/22 11:59:01;;;;;;;2.80;1.65;;;;;;;-2.43;93.04;100882.25;5032591;28;20067;-86
2022/01/22 12:01:53;;;;;;;3.67;1.73;;;;;;;-2.46;92.86;100880.78;5032189;28;20041;-88
2022/01/22 12:04:20;;;;;;;2.88;1.77;;;;;;;-2.44;93.13;100891.34;5024414;28;20042;-87
2022/01/22 12:07:04;;;;;;;4.70;2.42;;;;;;;-2.47;93.30;100900.63;5014735;28;20030;-85
2022/01/22 12:10:04;;;;;;;6.45;2.05;;;;;;;-2.45;93.52;100905.78;5031755;28;20041;-84
2022/01/22 12:15:42;;;;;;;5.20;2.70;;;;;;;-2.46;93.79;100922.94;5031940;28;20034;-87
2022/01/22 12:18:14;;;;;;;6.28;1.88;;;;;;;-2.47;93.98;100918.59;5014712;28;20156;-89
2022/01/22 12:23:29;;;;;;;5.65;2.50;;;;;;;-2.45;94.06;100930.81;5032556;28;20041;-87
2022/01/22 12:25:56;;;;;;;5.10;2.67;;;;;;;-2.44;94.31;100931.63;5031207;28;20037;-84
2022/01/22 12:28:42;;;;;;;3.58;1.92;;;;;;;-2.44;94.52;100937.00;5031856;28;20042;-85
2022/01/22 12:31:17;;;;;;;4.47;2.75;;;;;;;-2.45;94.48;100944.25;5031642;28;20072;-86
2022/01/22 12:33:46;;;;;;;3.15;1.90;;;;;;;-2.47;94.26;100948.16;5031583;28;20091;-87
2022/01/22 12:36:18;;;;;;;4.40;2.22;;;;;;;-2.49;94.29;100945.66;5032005;28;20041;-83
2022/01/22 12:38:50;;;;;;;3.88;2.15;;;;;;;-2.50;94.12;100953.91;5030335;28;20069;-82
2022/01/22 12:44:11;;;;;;;6.00;2.03;;;;;;;-2.55;94.00;100959.00;5031642;28;20049;-83
2022/01/22 12:46:37;;;;;;;2.78;1.40;;;;;;;-2.54;93.89;100960.69;5031408;28;20500;-83
2022/01/22 12:49:04;;;;;;;6.60;2.95;;;;;;;-2.53;94.60;100962.34;5033353;28;20052;-88
2022/01/22 12:51:30;;;;;;;5.72;2.53;;;;;;;-2.55;94.05;100964.38;5032311;28;20132;-94
2022/01/22 12:53:56;;;;;;;2.72;1.63;;;;;;;-2.55;93.97;100969.75;5018875;28;20044;-92
2022/01/22 12:59:02;;;;;;;4.65;1.80;;;;;;;-2.55;94.18;100980.50;5041834;28;20041;-89
2022/01/22 13:01:30;;;;;;;5.85;2.28;;;;;;;-2.53;94.03;100979.28;5027526;28;20034;-79
2022/01/22 13:03:57;;;;;;;6.30;3.03;;;;;;;-2.52;94.11;100988.19;5030945;28;20037;-84
2022/01/22 13:06:39;;;;;;;4.70;2.70;;;;;;;-2.52;94.48;100990.88;5030124;28;20091;-89
2022/01/22 13:09:48;;;;;;;5.75;3.20;;;;;;;-2.56;93.90;101006.53;5024027;28;20053;-86
2022/01/22 13:12:14;;;;;;;7.00;4.10;;;;;;;-2.58;94.09;100995.16;5028602;28;20033;-86
2022/01/22 13:14:39;;;;;;;4.82;2.47;;;;;;;-2.59;94.21;101008.78;5012197;28;20026;-80
2022/01/22 13:17:11;;;;;;;7.30;3.70;;;;;;;-2.61;94.23;101006.25;5026204;28;20034;-79
2022/01/22 13:19:38;;;;;;;8.27;5.10;;;;;;;-2.65;93.96;101018.38;5031346;28;20053;-88
2022/01/22 13:22:05;;;;;;;8.35;3.88;;;;;;;-2.69;94.27;101013.56;5030585;28;20103;-83
2022/01/22 13:24:31;;;;;;;6.50;3.40;;;;;;;-2.76;94.29;101011.66;5031997;28;20458;-81
2022/01/22 13:27:12;;;;;;;6.88;3.95;;;;;;;-2.80;93.88;101018.38;5034862;28;20500;-84
2022/01/22 13:29:43;;;;;;;7.43;4.00;;;;;;;-2.87;94.46;101022.00;5045698;28;20056;-77
2022/01/22 13:49:17;;;;;;;6.05;3.50;;;;;;;-3.06;93.21;101059.09;5030628;28;20091;-83